sensor_id;sensor_type;location;lat;lon;timestamp;P1;durP1;ratioP1;P2;durP2;ratioP2
40044;SDS011;25735;48.122;11.422;2023-04-03T00:01:05;12.43;;;9.55;;
40044;SDS011;25735;48.122;11.422;2023-04-03T00:03:30;12.65;;;10.30;;
40044;SDS011;25735;48.122;11.422;2023-04-03T00:05:56;12.73;;;9.30;;
40044;SDS011;25735;48.122;11.422;2023-04-03T00:08:21;16.05;;;9.88;;
40044;SDS011;25735;48.122;11.422;2023-04-03T00:10:46;16.80;;;10.23;;
40044;SDS011;25735;48.122;11.422;2023-04-03T00:13:12;16.35;;;9.80;;
40044;SDS011;25735;48.122;11.422;2023-04-03T00:15:37;13.80;;;9.13;;
40044;SDS011;25735;48.122;11.422;2023-04-03T00:18:03;16.33;;;10.10;;
40044;SDS011;25735;48.122;11.422;2023-04-03T00:20:28;12.30;;;9.00;;
40044;SDS011;25735;48.122;11.422;2023-04-03T00:22:53;14.20;;;9.53;;
40044;SDS011;25735;48.122;11.422;2023-04-03T00:25:19;13.68;;;9.70;;
40044;SDS011;25735;48.122;11.422;2023-04-03T00:27:44;13.07;;;9.40;;
40044;SDS011;25735;48.122;11.422;2023-04-03T00:30:10;11.48;;;8.32;;
40044;SDS011;25735;48.122;11.422;2023-04-03T00:32:36;11.20;;;9.40;;
40044;SDS011;25735;48.122;11.422;2023-04-03T00:35:01;11.27;;;8.90;;
40044;SDS011;25735;48.122;11.422;2023-04-03T00:37:26;12.40;;;8.40;;
40044;SDS011;25735;48.122;11.422;2023-04-03T00:39:52;11.48;;;9.93;;
40044;SDS011;25735;48.122;11.422;2023-04-03T00:42:17;12.10;;;8.73;;
40044;SDS011;25735;48.122;11.422;2023-04-03T00:47:09;13.88;;;8.35;;
40044;SDS011;25735;48.122;11.422;2023-04-03T00:49:36;11.35;;;8.40;;
40044;SDS011;25735;48.122;11.422;2023-04-03T00:52:02;12.27;;;8.40;;
40044;SDS011;25735;48.122;11.422;2023-04-03T00:54:27;11.07;;;7.97;;
40044;SDS011;25735;48.122;11.422;2023-04-03T00:56:53;12.53;;;8.07;;
40044;SDS011;25735;48.122;11.422;2023-04-03T00:59:21;14.10;;;8.70;;
40044;SDS011;25735;48.122;11.422;2023-04-03T01:01:48;10.90;;;8.98;;
40044;SDS011;25735;48.122;11.422;2023-04-03T01:06:58;11.00;;;9.65;;
40044;SDS011;25735;48.122;11.422;2023-04-03T01:09:24;13.43;;;9.52;;
40044;SDS011;25735;48.122;11.422;2023-04-03T01:11:50;13.50;;;8.38;;
40044;SDS011;25735;48.122;11.422;2023-04-03T01:14:15;12.65;;;8.45;;
40044;SDS011;25735;48.122;11.422;2023-04-03T01:16:40;10.95;;;8.38;;
40044;SDS011;25735;48.122;11.422;2023-04-03T01:19:10;12.10;;;8.47;;
40044;SDS011;25735;48.122;11.422;2023-04-03T01:26:44;12.07;;;7.88;;
40044;SDS011;25735;48.122;11.422;2023-04-03T01:29:10;9.95;;;8.55;;
40044;SDS011;25735;48.122;11.422;2023-04-03T01:31:49;13.35;;;8.82;;
40044;SDS011;25735;48.122;11.422;2023-04-03T01:34:14;12.48;;;9.20;;
40044;SDS011;25735;48.122;11.422;2023-04-03T01:36:39;11.87;;;7.93;;
40044;SDS011;25735;48.122;11.422;2023-04-03T01:39:05;11.43;;;7.30;;
40044;SDS011;25735;48.122;11.422;2023-04-03T01:41:30;10.07;;;8.15;;
40044;SDS011;25735;48.122;11.422;2023-04-03T01:43:55;12.13;;;8.23;;
40044;SDS011;25735;48.122;11.422;2023-04-03T01:46:20;10.00;;;7.80;;
40044;SDS011;25735;48.122;11.422;2023-04-03T01:48:46;11.55;;;8.55;;
40044;SDS011;25735;48.122;11.422;2023-04-03T01:51:12;12.35;;;8.32;;
40044;SDS011;25735;48.122;11.422;2023-04-03T01:53:37;9.23;;;7.63;;
40044;SDS011;25735;48.122;11.422;2023-04-03T01:56:02;13.90;;;9.02;;
40044;SDS011;25735;48.122;11.422;2023-04-03T01:58:28;12.90;;;9.10;;
40044;SDS011;25735;48.122;11.422;2023-04-03T02:00:53;9.18;;;7.25;;
40044;SDS011;25735;48.122;11.422;2023-04-03T02:03:19;11.20;;;8.02;;
40044;SDS011;25735;48.122;11.422;2023-04-03T02:05:44;11.13;;;8.80;;
40044;SDS011;25735;48.122;11.422;2023-04-03T02:08:10;10.13;;;7.90;;
40044;SDS011;25735;48.122;11.422;2023-04-03T02:10:35;10.32;;;8.70;;
40044;SDS011;25735;48.122;11.422;2023-04-03T02:13:00;11.27;;;8.38;;
40044;SDS011;25735;48.122;11.422;2023-04-03T02:15:26;10.67;;;7.97;;
40044;SDS011;25735;48.122;11.422;2023-04-03T02:17:51;11.75;;;8.77;;
40044;SDS011;25735;48.122;11.422;2023-04-03T02:20:17;12.75;;;8.88;;
40044;SDS011;25735;48.122;11.422;2023-04-03T02:22:42;10.20;;;7.68;;
40044;SDS011;25735;48.122;11.422;2023-04-03T02:25:07;11.40;;;8.67;;
40044;SDS011;25735;48.122;11.422;2023-04-03T02:27:32;10.57;;;8.05;;
40044;SDS011;25735;48.122;11.422;2023-04-03T02:29:57;9.97;;;7.67;;
40044;SDS011;25735;48.122;11.422;2023-04-03T02:32:23;12.07;;;9.20;;
40044;SDS011;25735;48.122;11.422;2023-04-03T02:34:48;12.45;;;7.63;;
40044;SDS011;25735;48.122;11.422;2023-04-03T02:37:13;11.33;;;8.20;;
40044;SDS011;25735;48.122;11.422;2023-04-03T02:39:38;12.90;;;7.38;;
40044;SDS011;25735;48.122;11.422;2023-04-03T02:42:03;9.93;;;7.50;;
40044;SDS011;25735;48.122;11.422;2023-04-03T02:44:29;13.88;;;8.45;;
40044;SDS011;25735;48.122;11.422;2023-04-03T02:46:54;10.68;;;8.20;;
40044;SDS011;25735;48.122;11.422;2023-04-03T02:49:19;11.95;;;8.70;;
40044;SDS011;25735;48.122;11.422;2023-04-03T02:51:44;11.77;;;8.07;;
40044;SDS011;25735;48.122;11.422;2023-04-03T02:54:10;10.60;;;7.50;;
40044;SDS011;25735;48.122;11.422;2023-04-03T02:56:35;10.65;;;8.23;;
40044;SDS011;25735;48.122;11.422;2023-04-03T02:59:01;10.07;;;7.00;;
40044;SDS011;25735;48.122;11.422;2023-04-03T03:01:26;9.37;;;7.43;;
40044;SDS011;25735;48.122;11.422;2023-04-03T03:03:53;10.82;;;7.95;;
40044;SDS011;25735;48.122;11.422;2023-04-03T03:06:18;10.15;;;7.40;;
40044;SDS011;25735;48.122;11.422;2023-04-03T03:08:43;10.80;;;7.35;;
40044;SDS011;25735;48.122;11.422;2023-04-03T03:11:09;8.80;;;6.88;;
40044;SDS011;25735;48.122;11.422;2023-04-03T03:13:34;9.30;;;7.25;;
40044;SDS011;25735;48.122;11.422;2023-04-03T03:16:00;11.53;;;7.43;;
40044;SDS011;25735;48.122;11.422;2023-04-03T03:18:25;11.30;;;6.97;;
40044;SDS011;25735;48.122;11.422;2023-04-03T03:20:54;9.23;;;6.75;;
40044;SDS011;25735;48.122;11.422;2023-04-03T03:23:20;9.95;;;6.55;;
40044;SDS011;25735;48.122;11.422;2023-04-03T03:25:46;7.20;;;5.80;;
40044;SDS011;25735;48.122;11.422;2023-04-03T03:28:11;7.97;;;6.40;;
40044;SDS011;25735;48.122;11.422;2023-04-03T03:30:36;8.90;;;6.45;;
40044;SDS011;25735;48.122;11.422;2023-04-03T03:33:02;10.73;;;6.85;;
40044;SDS011;25735;48.122;11.422;2023-04-03T03:35:27;11.18;;;6.93;;
40044;SDS011;25735;48.122;11.422;2023-04-03T03:37:52;12.33;;;6.27;;
40044;SDS011;25735;48.122;11.422;2023-04-03T03:40:17;9.10;;;6.53;;
40044;SDS011;25735;48.122;11.422;2023-04-03T03:42:43;6.97;;;5.73;;
40044;SDS011;25735;48.122;11.422;2023-04-03T03:45:08;7.80;;;6.30;;
40044;SDS011;25735;48.122;11.422;2023-04-03T03:47:33;7.60;;;5.75;;
40044;SDS011;25735;48.122;11.422;2023-04-03T03:49:59;10.15;;;5.72;;
40044;SDS011;25735;48.122;11.422;2023-04-03T03:52:24;10.53;;;7.30;;
40044;SDS011;25735;48.122;11.422;2023-04-03T03:54:49;10.05;;;6.72;;
40044;SDS011;25735;48.122;11.422;2023-04-03T03:57:14;8.27;;;5.97;;
40044;SDS011;25735;48.122;11.422;2023-04-03T03:59:40;7.82;;;6.32;;
40044;SDS011;25735;48.122;11.422;2023-04-03T04:02:06;9.60;;;6.80;;
40044;SDS011;25735;48.122;11.422;2023-04-03T04:04:31;7.70;;;5.38;;
40044;SDS011;25735;48.122;11.422;2023-04-03T04:06:57;5.80;;;5.05;;
40044;SDS011;25735;48.122;11.422;2023-04-03T04:09:22;6.22;;;5.60;;
40044;SDS011;25735;48.122;11.422;2023-04-03T04:11:47;7.22;;;5.65;;
40044;SDS011;25735;48.122;11.422;2023-04-03T04:14:12;8.13;;;6.33;;
40044;SDS011;25735;48.122;11.422;2023-04-03T04:16:38;7.28;;;5.75;;
40044;SDS011;25735;48.122;11.422;2023-04-03T04:19:03;6.55;;;5.50;;
40044;SDS011;25735;48.122;11.422;2023-04-03T04:21:28;6.88;;;5.57;;
40044;SDS011;25735;48.122;11.422;2023-04-03T04:23:54;6.93;;;5.55;;
40044;SDS011;25735;48.122;11.422;2023-04-03T04:26:19;6.43;;;5.32;;
40044;SDS011;25735;48.122;11.422;2023-04-03T04:28:46;5.65;;;4.68;;
40044;SDS011;25735;48.122;11.422;2023-04-03T04:31:11;6.90;;;5.80;;
40044;SDS011;25735;48.122;11.422;2023-04-03T04:33:36;9.67;;;5.30;;
40044;SDS011;25735;48.122;11.422;2023-04-03T04:36:01;6.85;;;5.20;;
40044;SDS011;25735;48.122;11.422;2023-04-03T04:38:26;6.25;;;5.60;;
40044;SDS011;25735;48.122;11.422;2023-04-03T04:40:52;6.47;;;5.10;;
40044;SDS011;25735;48.122;11.422;2023-04-03T04:43:17;7.87;;;5.30;;
40044;SDS011;25735;48.122;11.422;2023-04-03T04:45:42;7.40;;;5.32;;
40044;SDS011;25735;48.122;11.422;2023-04-03T04:48:07;7.37;;;5.40;;
40044;SDS011;25735;48.122;11.422;2023-04-03T04:50:32;6.90;;;5.28;;
40044;SDS011;25735;48.122;11.422;2023-04-03T04:52:58;5.57;;;4.77;;
40044;SDS011;25735;48.122;11.422;2023-04-03T04:55:23;7.85;;;5.50;;
40044;SDS011;25735;48.122;11.422;2023-04-03T04:57:48;8.03;;;6.13;;
40044;SDS011;25735;48.122;11.422;2023-04-03T05:00:13;9.17;;;5.50;;
40044;SDS011;25735;48.122;11.422;2023-04-03T05:02:39;6.40;;;5.35;;
40044;SDS011;25735;48.122;11.422;2023-04-03T05:05:04;5.85;;;4.97;;
40044;SDS011;25735;48.122;11.422;2023-04-03T05:07:29;6.88;;;5.32;;
40044;SDS011;25735;48.122;11.422;2023-04-03T05:09:54;6.22;;;5.10;;
40044;SDS011;25735;48.122;11.422;2023-04-03T05:12:20;8.17;;;5.90;;
40044;SDS011;25735;48.122;11.422;2023-04-03T05:14:45;7.45;;;5.57;;
40044;SDS011;25735;48.122;11.422;2023-04-03T05:17:10;5.87;;;5.27;;
40044;SDS011;25735;48.122;11.422;2023-04-03T05:19:35;7.77;;;5.43;;
40044;SDS011;25735;48.122;11.422;2023-04-03T05:22:00;9.00;;;5.68;;
40044;SDS011;25735;48.122;11.422;2023-04-03T05:24:25;7.33;;;5.67;;
40044;SDS011;25735;48.122;11.422;2023-04-03T05:26:51;7.55;;;5.57;;
40044;SDS011;25735;48.122;11.422;2023-04-03T05:29:16;6.73;;;5.37;;
40044;SDS011;25735;48.122;11.422;2023-04-03T05:31:41;9.48;;;6.40;;
40044;SDS011;25735;48.122;11.422;2023-04-03T05:34:06;8.00;;;6.33;;
40044;SDS011;25735;48.122;11.422;2023-04-03T05:36:32;8.33;;;6.47;;
40044;SDS011;25735;48.122;11.422;2023-04-03T05:38:57;7.50;;;6.65;;
40044;SDS011;25735;48.122;11.422;2023-04-03T05:41:22;7.43;;;6.07;;
40044;SDS011;25735;48.122;11.422;2023-04-03T05:43:47;9.05;;;5.70;;
40044;SDS011;25735;48.122;11.422;2023-04-03T05:46:14;7.23;;;5.70;;
40044;SDS011;25735;48.122;11.422;2023-04-03T05:48:39;9.48;;;5.88;;
40044;SDS011;25735;48.122;11.422;2023-04-03T05:51:05;8.10;;;6.03;;
40044;SDS011;25735;48.122;11.422;2023-04-03T05:53:31;7.20;;;5.10;;
40044;SDS011;25735;48.122;11.422;2023-04-03T05:55:57;6.75;;;5.43;;
40044;SDS011;25735;48.122;11.422;2023-04-03T05:58:23;8.40;;;5.63;;
40044;SDS011;25735;48.122;11.422;2023-04-03T06:00:48;7.83;;;5.60;;
40044;SDS011;25735;48.122;11.422;2023-04-03T06:03:14;6.78;;;5.00;;
40044;SDS011;25735;48.122;11.422;2023-04-03T06:05:39;8.95;;;6.90;;
40044;SDS011;25735;48.122;11.422;2023-04-03T06:08:04;12.25;;;7.82;;
40044;SDS011;25735;48.122;11.422;2023-04-03T06:10:30;9.18;;;6.30;;
40044;SDS011;25735;48.122;11.422;2023-04-03T06:12:55;8.10;;;6.30;;
40044;SDS011;25735;48.122;11.422;2023-04-03T06:15:21;7.07;;;5.40;;
40044;SDS011;25735;48.122;11.422;2023-04-03T06:17:47;11.75;;;7.80;;
40044;SDS011;25735;48.122;11.422;2023-04-03T06:20:12;7.93;;;5.80;;
40044;SDS011;25735;48.122;11.422;2023-04-03T06:22:38;7.68;;;5.43;;
40044;SDS011;25735;48.122;11.422;2023-04-03T06:25:03;8.13;;;5.47;;
40044;SDS011;25735;48.122;11.422;2023-04-03T06:27:28;9.25;;;6.55;;
40044;SDS011;25735;48.122;11.422;2023-04-03T06:29:54;7.15;;;5.50;;
40044;SDS011;25735;48.122;11.422;2023-04-03T06:32:19;6.45;;;5.45;;
40044;SDS011;25735;48.122;11.422;2023-04-03T06:34:44;6.35;;;5.43;;
40044;SDS011;25735;48.122;11.422;2023-04-03T06:37:17;8.25;;;6.07;;
40044;SDS011;25735;48.122;11.422;2023-04-03T06:39:43;9.20;;;5.40;;
40044;SDS011;25735;48.122;11.422;2023-04-03T06:42:08;5.73;;;4.50;;
40044;SDS011;25735;48.122;11.422;2023-04-03T06:44:33;6.93;;;5.20;;
40044;SDS011;25735;48.122;11.422;2023-04-03T06:46:59;7.20;;;6.28;;
40044;SDS011;25735;48.122;11.422;2023-04-03T06:49:25;6.97;;;5.72;;
40044;SDS011;25735;48.122;11.422;2023-04-03T06:51:50;6.05;;;4.15;;
40044;SDS011;25735;48.122;11.422;2023-04-03T06:54:16;7.43;;;4.78;;
40044;SDS011;25735;48.122;11.422;2023-04-03T06:56:41;6.93;;;4.90;;
40044;SDS011;25735;48.122;11.422;2023-04-03T06:59:06;5.95;;;4.75;;
40044;SDS011;25735;48.122;11.422;2023-04-03T07:01:32;7.10;;;5.38;;
40044;SDS011;25735;48.122;11.422;2023-04-03T07:03:57;7.63;;;5.43;;
40044;SDS011;25735;48.122;11.422;2023-04-03T07:06:22;8.70;;;5.10;;
40044;SDS011;25735;48.122;11.422;2023-04-03T07:08:47;7.07;;;4.70;;
40044;SDS011;25735;48.122;11.422;2023-04-03T07:11:15;5.68;;;4.13;;
40044;SDS011;25735;48.122;11.422;2023-04-03T07:13:41;4.63;;;3.88;;
40044;SDS011;25735;48.122;11.422;2023-04-03T07:16:06;4.25;;;3.75;;
40044;SDS011;25735;48.122;11.422;2023-04-03T07:18:32;5.68;;;4.75;;
40044;SDS011;25735;48.122;11.422;2023-04-03T07:20:57;5.47;;;4.65;;
40044;SDS011;25735;48.122;11.422;2023-04-03T07:23:22;3.97;;;3.40;;
40044;SDS011;25735;48.122;11.422;2023-04-03T07:25:48;6.07;;;4.70;;
40044;SDS011;25735;48.122;11.422;2023-04-03T07:28:15;6.55;;;4.05;;
40044;SDS011;25735;48.122;11.422;2023-04-03T07:30:47;6.75;;;4.93;;
40044;SDS011;25735;48.122;11.422;2023-04-03T07:33:13;4.22;;;3.58;;
40044;SDS011;25735;48.122;11.422;2023-04-03T07:35:39;6.05;;;4.80;;
40044;SDS011;25735;48.122;11.422;2023-04-03T07:38:04;4.85;;;3.75;;
40044;SDS011;25735;48.122;11.422;2023-04-03T07:40:29;5.03;;;3.97;;
40044;SDS011;25735;48.122;11.422;2023-04-03T07:42:54;4.30;;;3.57;;
40044;SDS011;25735;48.122;11.422;2023-04-03T07:45:21;4.63;;;3.85;;
40044;SDS011;25735;48.122;11.422;2023-04-03T07:47:47;4.63;;;3.83;;
40044;SDS011;25735;48.122;11.422;2023-04-03T07:50:12;5.97;;;4.68;;
40044;SDS011;25735;48.122;11.422;2023-04-03T07:52:38;5.45;;;4.30;;
40044;SDS011;25735;48.122;11.422;2023-04-03T07:55:03;6.78;;;4.35;;
40044;SDS011;25735;48.122;11.422;2023-04-03T07:57:28;5.30;;;4.25;;
40044;SDS011;25735;48.122;11.422;2023-04-03T07:59:53;5.93;;;4.05;;
40044;SDS011;25735;48.122;11.422;2023-04-03T08:02:18;4.15;;;3.35;;
40044;SDS011;25735;48.122;11.422;2023-04-03T08:04:44;5.80;;;4.07;;
40044;SDS011;25735;48.122;11.422;2023-04-03T08:07:09;5.18;;;3.85;;
40044;SDS011;25735;48.122;11.422;2023-04-03T08:09:35;7.00;;;4.53;;
40044;SDS011;25735;48.122;11.422;2023-04-03T08:12:00;4.57;;;4.13;;
40044;SDS011;25735;48.122;11.422;2023-04-03T08:14:26;7.57;;;5.13;;
40044;SDS011;25735;48.122;11.422;2023-04-03T08:16:51;5.43;;;4.25;;
40044;SDS011;25735;48.122;11.422;2023-04-03T08:19:16;5.18;;;3.70;;
40044;SDS011;25735;48.122;11.422;2023-04-03T08:21:43;5.60;;;4.55;;
40044;SDS011;25735;48.122;11.422;2023-04-03T08:24:08;7.47;;;6.43;;
40044;SDS011;25735;48.122;11.422;2023-04-03T08:26:33;5.22;;;4.30;;
40044;SDS011;25735;48.122;11.422;2023-04-03T08:28:59;6.65;;;4.75;;
40044;SDS011;25735;48.122;11.422;2023-04-03T08:31:24;7.53;;;6.63;;
40044;SDS011;25735;48.122;11.422;2023-04-03T08:33:49;7.30;;;5.07;;
40044;SDS011;25735;48.122;11.422;2023-04-03T08:36:19;7.43;;;5.50;;
40044;SDS011;25735;48.122;11.422;2023-04-03T08:38:45;6.15;;;4.68;;
40044;SDS011;25735;48.122;11.422;2023-04-03T08:49:26;5.05;;;4.32;;
40044;SDS011;25735;48.122;11.422;2023-04-03T08:51:53;7.18;;;4.53;;
40044;SDS011;25735;48.122;11.422;2023-04-03T08:54:40;6.00;;;4.82;;
40044;SDS011;25735;48.122;11.422;2023-04-03T08:57:07;5.38;;;4.88;;
40044;SDS011;25735;48.122;11.422;2023-04-03T08:59:33;5.80;;;4.72;;
40044;SDS011;25735;48.122;11.422;2023-04-03T09:01:59;9.13;;;5.57;;
40044;SDS011;25735;48.122;11.422;2023-04-03T09:04:27;6.63;;;4.72;;
40044;SDS011;25735;48.122;11.422;2023-04-03T09:06:54;6.13;;;4.93;;
40044;SDS011;25735;48.122;11.422;2023-04-03T09:11:50;8.65;;;5.70;;
40044;SDS011;25735;48.122;11.422;2023-04-03T09:16:54;5.45;;;4.47;;
40044;SDS011;25735;48.122;11.422;2023-04-03T09:21:56;6.28;;;4.10;;
40044;SDS011;25735;48.122;11.422;2023-04-03T09:24:21;5.55;;;3.95;;
40044;SDS011;25735;48.122;11.422;2023-04-03T09:26:58;6.63;;;4.55;;
40044;SDS011;25735;48.122;11.422;2023-04-03T09:29:24;6.47;;;5.22;;
40044;SDS011;25735;48.122;11.422;2023-04-03T09:31:50;6.18;;;4.60;;
40044;SDS011;25735;48.122;11.422;2023-04-03T09:34:20;6.03;;;4.72;;
40044;SDS011;25735;48.122;11.422;2023-04-03T09:36:47;6.57;;;4.97;;
40044;SDS011;25735;48.122;11.422;2023-04-03T09:39:17;5.68;;;4.88;;
40044;SDS011;25735;48.122;11.422;2023-04-03T09:42:05;5.38;;;4.30;;
40044;SDS011;25735;48.122;11.422;2023-04-03T09:44:35;4.70;;;3.90;;
40044;SDS011;25735;48.122;11.422;2023-04-03T09:49:44;4.85;;;4.35;;
40044;SDS011;25735;48.122;11.422;2023-04-03T09:52:22;5.55;;;3.70;;
40044;SDS011;25735;48.122;11.422;2023-04-03T09:54:48;6.07;;;4.47;;
40044;SDS011;25735;48.122;11.422;2023-04-03T09:57:13;5.37;;;4.20;;
40044;SDS011;25735;48.122;11.422;2023-04-03T09:59:46;8.02;;;4.00;;
40044;SDS011;25735;48.122;11.422;2023-04-03T10:04:56;5.53;;;4.30;;
40044;SDS011;25735;48.122;11.422;2023-04-03T10:10:00;5.13;;;4.13;;
40044;SDS011;25735;48.122;11.422;2023-04-03T10:12:26;6.10;;;3.80;;
40044;SDS011;25735;48.122;11.422;2023-04-03T10:14:55;4.68;;;4.20;;
40044;SDS011;25735;48.122;11.422;2023-04-03T10:19:56;3.23;;;2.93;;
40044;SDS011;25735;48.122;11.422;2023-04-03T10:28:57;5.60;;;4.03;;
40044;SDS011;25735;48.122;11.422;2023-04-03T10:31:16;5.80;;;4.45;;
40044;SDS011;25735;48.122;11.422;2023-04-03T10:33:47;5.40;;;4.68;;
40044;SDS011;25735;48.122;11.422;2023-04-03T10:43:58;5.85;;;4.90;;
40044;SDS011;25735;48.122;11.422;2023-04-03T10:46:28;6.20;;;4.15;;
40044;SDS011;25735;48.122;11.422;2023-04-03T10:49:01;5.20;;;4.70;;
40044;SDS011;25735;48.122;11.422;2023-04-03T10:56:43;6.50;;;3.80;;
40044;SDS011;25735;48.122;11.422;2023-04-03T11:01:58;5.68;;;4.35;;
40044;SDS011;25735;48.122;11.422;2023-04-03T11:04:25;4.63;;;4.00;;
40044;SDS011;25735;48.122;11.422;2023-04-03T11:06:53;5.57;;;4.35;;
40044;SDS011;25735;48.122;11.422;2023-04-03T11:09:27;4.63;;;4.15;;
40044;SDS011;25735;48.122;11.422;2023-04-03T11:11:55;4.25;;;3.33;;
40044;SDS011;25735;48.122;11.422;2023-04-03T11:14:31;4.45;;;3.75;;
40044;SDS011;25735;48.122;11.422;2023-04-03T11:19:44;3.53;;;2.63;;
40044;SDS011;25735;48.122;11.422;2023-04-03T11:24:42;5.20;;;3.25;;
40044;SDS011;25735;48.122;11.422;2023-04-03T11:27:11;4.07;;;2.42;;
40044;SDS011;25735;48.122;11.422;2023-04-03T11:29:37;3.35;;;2.75;;
40044;SDS011;25735;48.122;11.422;2023-04-03T11:34:44;3.85;;;2.95;;
40044;SDS011;25735;48.122;11.422;2023-04-03T11:37:12;7.18;;;2.70;;
40044;SDS011;25735;48.122;11.422;2023-04-03T11:39:38;2.75;;;2.28;;
40044;SDS011;25735;48.122;11.422;2023-04-03T11:44:38;4.85;;;2.95;;
40044;SDS011;25735;48.122;11.422;2023-04-03T11:47:04;6.65;;;3.10;;
40044;SDS011;25735;48.122;11.422;2023-04-03T11:52:26;3.30;;;2.83;;
40044;SDS011;25735;48.122;11.422;2023-04-03T11:55:00;3.45;;;2.90;;
40044;SDS011;25735;48.122;11.422;2023-04-03T11:57:44;3.63;;;2.53;;
40044;SDS011;25735;48.122;11.422;2023-04-03T12:02:54;2.90;;;2.17;;
40044;SDS011;25735;48.122;11.422;2023-04-03T12:05:27;4.03;;;2.30;;
40044;SDS011;25735;48.122;11.422;2023-04-03T12:10:37;2.72;;;1.88;;
40044;SDS011;25735;48.122;11.422;2023-04-03T12:13:12;3.55;;;2.10;;
40044;SDS011;25735;48.122;11.422;2023-04-03T12:20:53;3.22;;;1.63;;
40044;SDS011;25735;48.122;11.422;2023-04-03T12:23:26;3.05;;;1.63;;
40044;SDS011;25735;48.122;11.422;2023-04-03T12:25:52;2.30;;;1.83;;
40044;SDS011;25735;48.122;11.422;2023-04-03T12:28:24;4.47;;;1.80;;
40044;SDS011;25735;48.122;11.422;2023-04-03T12:30:49;2.30;;;1.60;;
40044;SDS011;25735;48.122;11.422;2023-04-03T12:33:24;2.60;;;2.00;;
40044;SDS011;25735;48.122;11.422;2023-04-03T12:36:02;4.07;;;1.83;;
40044;SDS011;25735;48.122;11.422;2023-04-03T12:48:39;3.50;;;1.70;;
40044;SDS011;25735;48.122;11.422;2023-04-03T12:51:21;1.80;;;1.52;;
40044;SDS011;25735;48.122;11.422;2023-04-03T12:53:48;2.65;;;1.65;;
40044;SDS011;25735;48.122;11.422;2023-04-03T12:56:18;2.15;;;1.55;;
40044;SDS011;25735;48.122;11.422;2023-04-03T12:58:43;3.58;;;1.25;;
40044;SDS011;25735;48.122;11.422;2023-04-03T13:01:10;3.80;;;2.00;;
40044;SDS011;25735;48.122;11.422;2023-04-03T13:03:36;2.65;;;1.75;;
40044;SDS011;25735;48.122;11.422;2023-04-03T13:06:02;1.85;;;1.38;;
40044;SDS011;25735;48.122;11.422;2023-04-03T13:08:28;4.65;;;1.98;;
40044;SDS011;25735;48.122;11.422;2023-04-03T13:10:55;3.38;;;1.90;;
40044;SDS011;25735;48.122;11.422;2023-04-03T13:13:21;1.88;;;1.38;;
40044;SDS011;25735;48.122;11.422;2023-04-03T13:15:48;2.60;;;1.30;;
40044;SDS011;25735;48.122;11.422;2023-04-03T13:18:47;1.67;;;1.20;;
40044;SDS011;25735;48.122;11.422;2023-04-03T13:21:15;2.35;;;1.85;;
40044;SDS011;25735;48.122;11.422;2023-04-03T13:23:43;3.33;;;1.40;;
40044;SDS011;25735;48.122;11.422;2023-04-03T13:26:09;1.75;;;1.65;;
40044;SDS011;25735;48.122;11.422;2023-04-03T13:28:35;2.58;;;1.88;;
40044;SDS011;25735;48.122;11.422;2023-04-03T13:33:27;2.95;;;1.67;;
40044;SDS011;25735;48.122;11.422;2023-04-03T13:38:44;3.42;;;1.75;;
40044;SDS011;25735;48.122;11.422;2023-04-03T13:47:37;2.97;;;1.88;;
40044;SDS011;25735;48.122;11.422;2023-04-03T13:49:37;3.72;;;1.58;;
40044;SDS011;25735;48.122;11.422;2023-04-03T13:55:15;1.77;;;1.48;;
40044;SDS011;25735;48.122;11.422;2023-04-03T13:57:50;2.40;;;1.70;;
40044;SDS011;25735;48.122;11.422;2023-04-03T14:03:02;4.22;;;1.65;;
40044;SDS011;25735;48.122;11.422;2023-04-03T14:05:28;3.60;;;1.65;;
40044;SDS011;25735;48.122;11.422;2023-04-03T14:07:54;2.37;;;1.93;;
40044;SDS011;25735;48.122;11.422;2023-04-03T14:10:19;3.20;;;1.80;;
40044;SDS011;25735;48.122;11.422;2023-04-03T14:12:45;2.53;;;1.60;;
40044;SDS011;25735;48.122;11.422;2023-04-03T14:15:20;3.65;;;1.80;;
40044;SDS011;25735;48.122;11.422;2023-04-03T14:17:48;4.07;;;1.45;;
40044;SDS011;25735;48.122;11.422;2023-04-03T14:20:14;1.88;;;1.40;;
40044;SDS011;25735;48.122;11.422;2023-04-03T14:22:40;4.13;;;1.80;;
40044;SDS011;25735;48.122;11.422;2023-04-03T14:25:05;2.47;;;1.77;;
40044;SDS011;25735;48.122;11.422;2023-04-03T14:27:35;2.10;;;1.42;;
40044;SDS011;25735;48.122;11.422;2023-04-03T14:30:01;2.90;;;1.77;;
40044;SDS011;25735;48.122;11.422;2023-04-03T14:32:28;1.40;;;1.30;;
40044;SDS011;25735;48.122;11.422;2023-04-03T14:34:53;3.13;;;1.70;;
40044;SDS011;25735;48.122;11.422;2023-04-03T14:37:20;2.90;;;1.60;;
40044;SDS011;25735;48.122;11.422;2023-04-03T14:39:46;1.98;;;1.52;;
40044;SDS011;25735;48.122;11.422;2023-04-03T14:42:13;2.83;;;1.75;;
40044;SDS011;25735;48.122;11.422;2023-04-03T14:44:38;2.28;;;1.50;;
40044;SDS011;25735;48.122;11.422;2023-04-03T14:47:03;2.15;;;1.80;;
40044;SDS011;25735;48.122;11.422;2023-04-03T14:49:28;4.32;;;2.63;;
40044;SDS011;25735;48.122;11.422;2023-04-03T14:51:54;4.13;;;2.92;;
40044;SDS011;25735;48.122;11.422;2023-04-03T14:54:20;2.58;;;1.75;;
40044;SDS011;25735;48.122;11.422;2023-04-03T14:56:50;1.38;;;1.05;;
40044;SDS011;25735;48.122;11.422;2023-04-03T14:59:15;1.92;;;1.08;;
40044;SDS011;25735;48.122;11.422;2023-04-03T15:01:42;3.92;;;1.90;;
40044;SDS011;25735;48.122;11.422;2023-04-03T15:04:12;3.30;;;1.67;;
40044;SDS011;25735;48.122;11.422;2023-04-03T15:06:37;2.42;;;1.27;;
40044;SDS011;25735;48.122;11.422;2023-04-03T15:09:03;1.63;;;1.13;;
40044;SDS011;25735;48.122;11.422;2023-04-03T15:11:28;3.83;;;1.40;;
40044;SDS011;25735;48.122;11.422;2023-04-03T15:13:54;1.58;;;1.20;;
40044;SDS011;25735;48.122;11.422;2023-04-03T15:16:19;2.37;;;1.50;;
40044;SDS011;25735;48.122;11.422;2023-04-03T15:18:44;2.03;;;1.35;;
40044;SDS011;25735;48.122;11.422;2023-04-03T15:21:10;2.53;;;1.35;;
40044;SDS011;25735;48.122;11.422;2023-04-03T15:23:35;2.47;;;1.20;;
40044;SDS011;25735;48.122;11.422;2023-04-03T15:26:01;2.38;;;1.45;;
40044;SDS011;25735;48.122;11.422;2023-04-03T15:28:28;4.25;;;1.25;;
40044;SDS011;25735;48.122;11.422;2023-04-03T15:30:53;1.80;;;1.20;;
40044;SDS011;25735;48.122;11.422;2023-04-03T15:33:18;2.47;;;1.10;;
40044;SDS011;25735;48.122;11.422;2023-04-03T15:35:44;2.35;;;1.45;;
40044;SDS011;25735;48.122;11.422;2023-04-03T15:38:09;4.28;;;1.58;;
40044;SDS011;25735;48.122;11.422;2023-04-03T15:40:35;2.33;;;1.05;;
40044;SDS011;25735;48.122;11.422;2023-04-03T15:43:00;1.57;;;1.00;;
40044;SDS011;25735;48.122;11.422;2023-04-03T15:45:26;1.95;;;1.02;;
40044;SDS011;25735;48.122;11.422;2023-04-03T15:47:53;1.95;;;1.30;;
40044;SDS011;25735;48.122;11.422;2023-04-03T15:50:18;1.73;;;1.10;;
40044;SDS011;25735;48.122;11.422;2023-04-03T15:52:43;1.88;;;1.27;;
40044;SDS011;25735;48.122;11.422;2023-04-03T15:55:09;2.72;;;1.33;;
40044;SDS011;25735;48.122;11.422;2023-04-03T15:57:34;2.30;;;0.98;;
40044;SDS011;25735;48.122;11.422;2023-04-03T15:59:59;1.83;;;1.00;;
40044;SDS011;25735;48.122;11.422;2023-04-03T16:02:24;2.60;;;1.38;;
40044;SDS011;25735;48.122;11.422;2023-04-03T16:04:52;1.83;;;1.00;;
40044;SDS011;25735;48.122;11.422;2023-04-03T16:07:17;2.35;;;1.52;;
40044;SDS011;25735;48.122;11.422;2023-04-03T16:09:42;1.38;;;1.02;;
40044;SDS011;25735;48.122;11.422;2023-04-03T16:12:07;1.63;;;1.23;;
40044;SDS011;25735;48.122;11.422;2023-04-03T16:14:33;1.50;;;1.33;;
40044;SDS011;25735;48.122;11.422;2023-04-03T16:16:58;1.60;;;1.30;;